createdAt,value
2022-09-07T00:01:10.890Z,15.80
2022-09-07T00:03:38.422Z,14.77
2022-09-07T00:06:12.440Z,16.45
2022-09-07T00:08:43.531Z,16.63
2022-09-07T00:11:16.326Z,16.30
2022-09-07T00:13:47.313Z,14.68
2022-09-07T00:16:23.440Z,15.23
2022-09-07T00:18:54.374Z,13.25
2022-09-07T00:21:22.229Z,14.85
2022-09-07T00:23:50.455Z,14.43
2022-09-07T00:26:25.658Z,14.32
2022-09-07T00:29:02.009Z,14.05
2022-09-07T00:31:31.229Z,13.20
2022-09-07T00:34:02.173Z,13.60
2022-09-07T00:36:30.291Z,13.65
2022-09-07T00:38:58.452Z,13.73
2022-09-07T00:41:25.887Z,13.10
2022-09-07T00:43:57.399Z,12.35
2022-09-07T00:49:14.898Z,10.48
2022-09-07T00:52:01.956Z,10.88
2022-09-07T00:54:40.328Z,9.57
2022-09-07T00:57:08.552Z,9.90
2022-09-07T00:59:45.073Z,9.20
2022-09-07T01:02:17.113Z,7.45
2022-09-07T01:04:51.117Z,7.70
2022-09-07T01:07:19.430Z,7.10
2022-09-07T01:09:47.505Z,6.78
2022-09-07T01:12:14.996Z,6.13
2022-09-07T01:14:50.471Z,5.95
2022-09-07T01:17:51.596Z,5.18
2022-09-07T01:20:50.716Z,5.20
2022-09-07T01:23:59.035Z,5.90
2022-09-07T01:27:23.163Z,6.00
2022-09-07T01:30:09.402Z,4.10
2022-09-07T01:33:12.093Z,5.05
2022-09-07T01:36:03.185Z,4.90
2022-09-07T01:38:56.054Z,5.15
2022-09-07T01:41:44.780Z,4.80
2022-09-07T01:44:24.381Z,4.57
2022-09-07T01:47:09.215Z,4.35
2022-09-07T01:49:45.526Z,4.60
2022-09-07T01:52:36.155Z,3.95
2022-09-07T01:55:16.713Z,4.40
2022-09-07T01:58:13.621Z,4.85
2022-09-07T02:00:49.252Z,4.55
2022-09-07T02:03:29.158Z,4.38
2022-09-07T02:06:18.539Z,4.80
2022-09-07T02:09:01.035Z,4.43
2022-09-07T02:11:43.826Z,4.47
2022-09-07T02:14:30.217Z,4.57
2022-09-07T02:17:10.838Z,4.22
2022-09-07T02:19:50.051Z,4.57
2022-09-07T02:22:27.171Z,4.55
2022-09-07T02:25:00.862Z,4.38
2022-09-07T02:27:50.727Z,5.10
2022-09-07T02:30:18.321Z,4.13
2022-09-07T02:32:45.903Z,4.88
2022-09-07T02:35:13.542Z,4.78
2022-09-07T02:37:44.338Z,4.18
2022-09-07T02:40:12.975Z,3.83
2022-09-07T02:42:43.226Z,4.57
2022-09-07T02:45:13.676Z,4.35
2022-09-07T02:47:58.334Z,4.65
2022-09-07T02:50:58.642Z,4.38
2022-09-07T02:53:56.442Z,4.18
2022-09-07T02:57:00.869Z,4.30
2022-09-07T02:59:37.360Z,4.60
2022-09-07T03:02:19.733Z,4.22
2022-09-07T03:05:03.157Z,3.67
2022-09-07T03:07:41.007Z,3.80
2022-09-07T03:10:14.612Z,4.27
2022-09-07T03:12:49.532Z,4.03
2022-09-07T03:15:25.133Z,4.00
2022-09-07T03:17:53.711Z,4.00
2022-09-07T03:20:22.804Z,4.47
2022-09-07T03:22:52.663Z,3.80
2022-09-07T03:25:20.153Z,4.00
2022-09-07T03:27:47.582Z,3.97
2022-09-07T03:30:15.113Z,4.00
2022-09-07T03:32:42.549Z,4.80
2022-09-07T03:35:10.836Z,4.65
2022-09-07T03:37:38.780Z,4.68
2022-09-07T03:40:10.162Z,4.38
2022-09-07T03:42:38.276Z,4.10
2022-09-07T03:45:08.049Z,3.58
2022-09-07T03:47:39.609Z,4.00
2022-09-07T03:52:35.536Z,4.07
2022-09-07T03:55:04.217Z,4.45
2022-09-07T03:57:31.791Z,4.30
2022-09-07T03:59:59.224Z,4.38
2022-09-07T04:02:26.663Z,4.90
2022-09-07T04:04:54.160Z,4.82
2022-09-07T04:07:21.789Z,5.45
2022-09-07T04:09:51.235Z,4.90
2022-09-07T04:12:19.728Z,4.75
2022-09-07T04:14:47.159Z,4.75
2022-09-07T04:17:14.657Z,4.50
2022-09-07T04:19:42.209Z,5.32
2022-09-07T04:22:10.639Z,5.47
2022-09-07T04:24:38.215Z,5.40
2022-09-07T04:27:05.666Z,5.18
2022-09-07T04:29:33.094Z,5.20
2022-09-07T04:32:00.540Z,5.00
2022-09-07T04:34:28.148Z,5.18
2022-09-07T04:36:55.547Z,5.40
2022-09-07T04:39:23.032Z,5.68
2022-09-07T04:41:50.454Z,5.60
2022-09-07T04:44:17.887Z,5.90
2022-09-07T04:46:45.391Z,6.20
2022-09-07T04:49:13.978Z,6.05
2022-09-07T04:51:44.383Z,6.30
2022-09-07T04:54:12.202Z,6.68
2022-09-07T04:56:39.676Z,6.97
2022-09-07T04:59:07.195Z,7.60
2022-09-07T05:01:34.687Z,7.22
2022-09-07T05:04:04.376Z,6.80
2022-09-07T05:06:32.646Z,7.70
2022-09-07T05:09:00.553Z,8.07
2022-09-07T05:11:29.923Z,7.63
2022-09-07T05:14:03.223Z,8.55
2022-09-07T05:16:31.737Z,8.50
2022-09-07T05:19:02.487Z,7.50
2022-09-07T05:21:33.638Z,8.67
2022-09-07T05:24:02.493Z,9.88
2022-09-07T05:26:33.934Z,7.82
2022-09-07T05:31:54.843Z,8.60
2022-09-07T05:34:30.592Z,8.68
2022-09-07T05:36:58.846Z,8.45
2022-09-07T05:39:27.376Z,9.02
2022-09-07T05:42:40.529Z,7.93
2022-09-07T05:45:11.471Z,8.50
2022-09-07T05:47:39.312Z,8.57
2022-09-07T05:50:09.083Z,8.63
2022-09-07T05:52:36.687Z,9.48
2022-09-07T05:55:26.229Z,10.68
2022-09-07T05:57:51.974Z,11.07
2022-09-07T06:00:21.554Z,10.25
2022-09-07T06:02:49.127Z,11.30
2022-09-07T06:05:17.589Z,11.05
2022-09-07T06:07:48.253Z,11.88
2022-09-07T06:13:04.729Z,12.25
2022-09-07T06:15:33.798Z,11.65
2022-09-07T06:18:01.403Z,11.55
2022-09-07T06:20:28.931Z,11.38
2022-09-07T06:22:56.339Z,11.30
2022-09-07T06:25:23.814Z,12.05
2022-09-07T06:27:51.973Z,12.65
2022-09-07T06:30:20.929Z,12.40
2022-09-07T06:32:48.444Z,11.45
2022-09-07T06:35:16.125Z,11.00
2022-09-07T06:37:44.150Z,9.90
2022-09-07T06:40:12.193Z,11.30
2022-09-07T06:42:40.021Z,11.80
2022-09-07T06:45:11.225Z,10.95
2022-09-07T06:47:39.260Z,12.57
2022-09-07T06:50:07.584Z,13.52
2022-09-07T06:55:27.903Z,13.13
2022-09-07T06:57:55.313Z,13.38
2022-09-07T07:00:22.769Z,13.80
2022-09-07T07:02:50.267Z,14.50
2022-09-07T07:05:17.765Z,16.65
2022-09-07T07:07:45.278Z,16.17
2022-09-07T07:10:12.944Z,15.40
2022-09-07T07:15:08.842Z,17.15
2022-09-07T07:17:36.258Z,17.08
2022-09-07T07:20:03.965Z,19.77
2022-09-07T07:22:47.237Z,18.58
2022-09-07T07:25:15.263Z,16.77
2022-09-07T07:27:45.952Z,18.10
2022-09-07T07:30:16.702Z,19.65
2022-09-07T07:32:46.227Z,18.80
2022-09-07T07:35:14.495Z,18.73
2022-09-07T07:37:42.114Z,18.48
2022-09-07T07:42:42.821Z,18.60
2022-09-07T07:47:59.057Z,18.83
2022-09-07T07:50:31.571Z,18.83
2022-09-07T07:55:50.634Z,18.42
2022-09-07T07:58:18.575Z,18.92
2022-09-07T08:00:55.905Z,18.63
2022-09-07T08:03:25.366Z,19.52
2022-09-07T08:05:55.261Z,19.40
2022-09-07T08:08:23.724Z,18.27
2022-09-07T08:10:51.288Z,20.67
2022-09-07T08:13:19.220Z,20.30
2022-09-07T08:15:47.001Z,20.95
2022-09-07T08:18:17.150Z,20.70
2022-09-07T08:20:44.968Z,20.48
2022-09-07T08:23:12.489Z,21.17
2022-09-07T08:25:50.877Z,20.58
2022-09-07T08:28:19.829Z,21.58
2022-09-07T08:30:48.047Z,22.20
2022-09-07T08:33:15.704Z,21.25
2022-09-07T08:35:43.265Z,23.35
2022-09-07T08:38:10.846Z,23.63
2022-09-07T08:40:38.845Z,22.27
2022-09-07T08:43:26.967Z,23.60
2022-09-07T08:46:04.932Z,23.10
2022-09-07T08:48:35.822Z,23.98
2022-09-07T08:51:20.037Z,23.77
2022-09-07T08:53:50.539Z,24.48
2022-09-07T08:56:33.677Z,24.15
2022-09-07T08:59:18.775Z,23.15
2022-09-07T09:02:27.112Z,22.75
2022-09-07T09:05:16.098Z,21.13
2022-09-07T09:07:35.974Z,19.95
2022-09-07T09:10:27.338Z,19.80
2022-09-07T09:13:18.450Z,19.10
2022-09-07T09:16:02.444Z,20.77
2022-09-07T09:18:42.043Z,20.42
2022-09-07T09:21:16.585Z,19.58
2022-09-07T09:23:51.107Z,20.27
2022-09-07T09:26:25.393Z,19.95
2022-09-07T09:28:52.943Z,17.60
2022-09-07T09:31:26.478Z,16.95
2022-09-07T09:34:17.639Z,16.88
2022-09-07T09:36:49.725Z,15.70
2022-09-07T09:39:37.185Z,14.88
2022-09-07T09:42:11.649Z,14.02
2022-09-07T09:44:40.642Z,13.95
2022-09-07T09:47:30.368Z,12.48
2022-09-07T09:52:29.222Z,13.40
2022-09-07T09:53:06.723Z,14.48
2022-09-07T09:55:37.955Z,13.60
2022-09-07T10:01:30.975Z,13.57
2022-09-07T10:04:24.724Z,12.63
2022-09-07T10:07:09.001Z,12.00
2022-09-07T10:09:41.249Z,11.50
2022-09-07T10:12:24.781Z,9.45
2022-09-07T10:14:53.650Z,10.50
2022-09-07T10:17:35.692Z,10.15
2022-09-07T10:20:18.598Z,8.68
2022-09-07T10:22:58.682Z,9.45
2022-09-07T10:25:41.500Z,8.05
2022-09-07T10:28:10.026Z,8.63
2022-09-07T10:31:30.117Z,7.20
2022-09-07T10:34:29.472Z,7.97
2022-09-07T10:37:09.522Z,7.78
2022-09-07T10:40:00.302Z,7.18
2022-09-07T10:42:35.597Z,7.75
2022-09-07T10:45:24.688Z,8.40
2022-09-07T10:48:23.622Z,7.53
2022-09-07T10:51:05.130Z,6.97
2022-09-07T10:57:34.947Z,8.05
2022-09-07T11:00:16.433Z,8.18
2022-09-07T11:03:28.305Z,8.23
2022-09-07T11:06:09.061Z,8.40
2022-09-07T11:09:19.644Z,8.02
2022-09-07T11:12:05.595Z,7.30
2022-09-07T11:14:45.110Z,7.13
2022-09-07T11:17:50.616Z,7.15
2022-09-07T11:20:54.934Z,6.63
2022-09-07T11:23:42.074Z,7.00
2022-09-07T11:26:29.583Z,5.20
2022-09-07T11:32:26.330Z,4.80
2022-09-07T11:35:03.850Z,4.47
2022-09-07T11:37:47.047Z,4.40
2022-09-07T11:40:58.546Z,3.50
2022-09-07T11:43:35.100Z,3.28
2022-09-07T11:46:13.164Z,3.97
2022-09-07T11:48:52.415Z,3.92
2022-09-07T11:51:35.848Z,4.03
2022-09-07T11:54:39.230Z,3.08
2022-09-07T11:57:15.888Z,3.25
2022-09-07T12:00:01.665Z,2.83
2022-09-07T12:03:49.812Z,3.17
2022-09-07T12:06:32.095Z,2.88
2022-09-07T12:09:45.493Z,3.00
2022-09-07T12:12:43.575Z,3.00
2022-09-07T12:15:44.416Z,2.58
2022-09-07T12:19:01.149Z,2.00
2022-09-07T12:21:43.522Z,2.08
2022-09-07T12:24:35.560Z,2.00
2022-09-07T12:27:08.704Z,1.98
2022-09-07T12:29:36.822Z,2.30
2022-09-07T12:32:53.462Z,2.10
2022-09-07T12:34:55.703Z,2.20
2022-09-07T12:37:40.096Z,2.05
2022-09-07T12:40:36.138Z,2.00
2022-09-07T12:43:12.642Z,1.70
2022-09-07T12:45:48.420Z,1.70
2022-09-07T12:48:15.799Z,1.50
2022-09-07T12:51:09.565Z,1.63
2022-09-07T12:54:09.732Z,1.58
2022-09-07T12:57:28.970Z,1.40
2022-09-07T12:59:53.329Z,1.10
2022-09-07T13:03:49.456Z,1.25
2022-09-07T13:06:16.074Z,1.50
2022-09-07T13:09:17.282Z,1.80
2022-09-07T13:11:45.779Z,1.40
2022-09-07T13:14:13.411Z,1.33
2022-09-07T13:19:55.127Z,1.38
2022-09-07T13:22:35.213Z,1.40
2022-09-07T13:25:26.215Z,1.20
2022-09-07T13:28:23.603Z,1.30
2022-09-07T13:31:48.550Z,1.17
2022-09-07T13:34:34.114Z,1.40
2022-09-07T13:37:06.054Z,1.15
2022-09-07T13:39:45.733Z,1.30
2022-09-07T13:42:22.072Z,1.25
2022-09-07T13:45:00.262Z,1.00
2022-09-07T13:47:59.347Z,1.33
2022-09-07T13:50:43.368Z,1.17
2022-09-07T13:53:32.902Z,1.00
2022-09-07T13:56:24.325Z,1.33
2022-09-07T14:01:28.963Z,1.10
2022-09-07T14:04:07.533Z,1.08
2022-09-07T14:06:37.822Z,1.15
2022-09-07T14:09:14.782Z,1.10
2022-09-07T14:11:49.094Z,1.27
2022-09-07T14:14:26.463Z,1.10
2022-09-07T14:17:01.692Z,1.40
2022-09-07T14:19:45.287Z,1.42
2022-09-07T14:22:16.505Z,1.10
2022-09-07T14:24:51.395Z,1.33
2022-09-07T14:27:36.647Z,1.20
2022-09-07T14:30:33.296Z,1.00
2022-09-07T14:33:06.307Z,1.08
2022-09-07T14:35:38.352Z,0.93
2022-09-07T14:41:15.302Z,1.10
2022-09-07T14:43:56.533Z,0.90
2022-09-07T14:46:29.335Z,1.40
2022-09-07T14:49:01.549Z,0.80
2022-09-07T14:51:36.217Z,1.15
2022-09-07T14:54:08.037Z,1.10
2022-09-07T14:56:41.587Z,1.37
2022-09-07T14:59:44.444Z,1.75
2022-09-07T15:02:29.856Z,2.00
2022-09-07T15:05:25.938Z,1.05
2022-09-07T15:08:02.710Z,1.20
2022-09-07T15:10:41.344Z,1.30
2022-09-07T15:13:32.998Z,1.10
2022-09-07T15:16:05.525Z,1.00
2022-09-07T15:19:16.531Z,1.10
2022-09-07T15:21:45.438Z,1.57
2022-09-07T15:24:12.835Z,1.40
2022-09-07T15:27:02.915Z,2.78
2022-09-07T15:29:31.595Z,3.35
2022-09-07T15:32:05.114Z,1.60
2022-09-07T15:34:35.291Z,1.23
2022-09-07T15:38:00.305Z,1.17
2022-09-07T15:39:52.860Z,1.10
2022-09-07T15:45:08.956Z,1.60
2022-09-07T15:47:50.625Z,1.15
2022-09-07T15:50:19.494Z,3.35
2022-09-07T15:52:47.057Z,1.70
2022-09-07T15:55:17.096Z,0.95
2022-09-07T15:57:50.128Z,0.82
2022-09-07T16:00:20.768Z,0.93
2022-09-07T16:03:06.069Z,0.90
2022-09-07T16:05:34.487Z,0.98
2022-09-07T16:10:53.919Z,1.10
2022-09-07T16:13:24.020Z,0.90
2022-09-07T16:15:52.102Z,1.00
2022-09-07T16:18:19.599Z,1.02
2022-09-07T16:20:47.283Z,1.02
2022-09-07T16:23:17.064Z,1.00
2022-09-07T16:26:00.941Z,0.90
2022-09-07T16:28:29.433Z,1.13
2022-09-07T16:30:57.160Z,0.70
2022-09-07T16:33:34.379Z,1.05
2022-09-07T16:36:13.213Z,0.93
2022-09-07T16:38:44.442Z,1.00
2022-09-07T16:41:29.008Z,0.82
2022-09-07T16:43:57.354Z,0.90
2022-09-07T16:46:28.345Z,0.90
2022-09-07T16:48:55.826Z,0.90
2022-09-07T16:51:24.879Z,1.30
2022-09-07T16:53:55.813Z,0.95
2022-09-07T16:56:27.041Z,0.80
2022-09-07T16:58:58.909Z,1.60
2022-09-07T17:01:31.269Z,3.22
2022-09-07T17:04:00.330Z,1.50
2022-09-07T17:06:30.125Z,0.90
2022-09-07T17:09:01.277Z,0.90
2022-09-07T17:14:02.197Z,0.90
2022-09-07T17:16:33.617Z,1.00
2022-09-07T17:21:53.637Z,0.90
2022-09-07T17:24:21.463Z,1.10
2022-09-07T17:26:48.827Z,1.20
2022-09-07T17:29:16.696Z,1.10
2022-09-07T17:34:33.606Z,1.02
2022-09-07T17:37:01.374Z,1.17
2022-09-07T17:39:29.513Z,1.77
2022-09-07T17:41:57.065Z,1.02
2022-09-07T17:44:24.526Z,0.93
2022-09-07T17:46:51.947Z,1.10
2022-09-07T17:49:19.377Z,1.20
2022-09-07T17:51:46.864Z,1.20
2022-09-07T17:54:17.439Z,1.10
2022-09-07T17:56:46.253Z,1.30
2022-09-07T18:02:01.406Z,1.17
2022-09-07T18:04:28.984Z,1.25
2022-09-07T18:06:56.423Z,1.60
2022-09-07T18:09:24.032Z,1.63
2022-09-07T18:11:51.529Z,1.70
2022-09-07T18:14:19.396Z,1.25
2022-09-07T18:16:49.838Z,1.48
2022-09-07T18:19:18.893Z,1.50
2022-09-07T18:21:47.907Z,1.27
2022-09-07T18:24:22.863Z,1.40
2022-09-07T18:26:53.729Z,1.58
2022-09-07T18:29:29.944Z,1.52
2022-09-07T18:32:00.594Z,1.58
2022-09-07T18:34:31.902Z,1.50
2022-09-07T18:37:00.807Z,1.33
2022-09-07T18:39:28.559Z,1.85
2022-09-07T18:41:56.562Z,1.38
2022-09-07T18:47:22.339Z,1.65
2022-09-07T18:49:51.541Z,1.67
2022-09-07T18:55:09.833Z,1.60
2022-09-07T18:57:39.315Z,1.90
2022-09-07T19:00:09.563Z,1.98
2022-09-07T19:02:37.273Z,1.70
2022-09-07T19:07:52.979Z,1.63
2022-09-07T19:10:20.529Z,1.73
2022-09-07T19:12:47.915Z,2.10
2022-09-07T19:15:15.612Z,1.70
2022-09-07T19:17:43.029Z,1.25
2022-09-07T19:20:10.582Z,1.90
2022-09-07T19:22:38.932Z,2.00
2022-09-07T19:25:06.675Z,1.90
2022-09-07T19:27:34.614Z,1.52
2022-09-07T19:30:03.470Z,1.73
2022-09-07T19:32:30.833Z,1.63
2022-09-07T19:34:58.208Z,2.33
2022-09-07T19:37:26.151Z,1.73
2022-09-07T19:39:55.061Z,2.08
2022-09-07T19:42:24.407Z,2.30
2022-09-07T19:44:54.097Z,2.40
2022-09-07T19:47:21.911Z,2.45
2022-09-07T19:49:49.324Z,2.30
2022-09-07T19:52:16.672Z,2.10
2022-09-07T19:54:44.123Z,2.50
2022-09-07T19:57:12.221Z,2.15
2022-09-07T19:59:39.589Z,2.40
2022-09-07T20:02:07.123Z,2.40
2022-09-07T20:04:35.729Z,2.00
2022-09-07T20:07:03.971Z,2.65
2022-09-07T20:09:31.352Z,2.22
2022-09-07T20:12:01.719Z,2.38
2022-09-07T20:14:29.393Z,2.90
2022-09-07T20:16:57.116Z,2.78
2022-09-07T20:19:24.634Z,2.60
2022-09-07T20:21:55.632Z,2.45
2022-09-07T20:24:23.361Z,2.30
2022-09-07T20:26:51.257Z,2.00
2022-09-07T20:29:34.061Z,2.63
2022-09-07T20:32:01.857Z,3.00
2022-09-07T20:34:29.857Z,2.75
2022-09-07T20:36:57.407Z,3.50
2022-09-07T20:39:24.987Z,3.63
2022-09-07T20:41:52.652Z,3.50
2022-09-07T20:44:20.099Z,3.17
2022-09-07T20:46:47.589Z,3.60
2022-09-07T20:49:15.113Z,3.03
2022-09-07T20:51:42.513Z,3.13
2022-09-07T20:54:10.163Z,3.13
2022-09-07T20:56:37.690Z,2.90
2022-09-07T20:59:05.258Z,3.30
2022-09-07T21:01:34.909Z,3.10
2022-09-07T21:04:03.093Z,3.10
2022-09-07T21:06:32.777Z,2.55
2022-09-07T21:09:00.274Z,3.00
2022-09-07T21:11:34.345Z,3.30
2022-09-07T21:14:11.067Z,3.15
2022-09-07T21:16:39.212Z,3.05
2022-09-07T21:19:09.060Z,3.05
2022-09-07T21:21:42.654Z,3.60
2022-09-07T21:24:23.065Z,3.03
2022-09-07T21:26:51.796Z,3.10
2022-09-07T21:29:23.601Z,3.55
2022-09-07T21:31:53.597Z,3.72
2022-09-07T21:34:22.197Z,3.78
2022-09-07T21:36:49.898Z,4.13
2022-09-07T21:39:17.672Z,3.35
2022-09-07T21:41:45.518Z,3.92
2022-09-07T21:44:15.498Z,3.47
2022-09-07T21:46:44.145Z,3.75
2022-09-07T21:49:12.185Z,4.15
2022-09-07T21:51:39.821Z,4.20
2022-09-07T21:54:07.433Z,3.80
2022-09-07T21:56:34.850Z,4.13
2022-09-07T21:59:02.594Z,4.15
2022-09-07T22:01:31.689Z,4.57
2022-09-07T22:04:03.354Z,4.00
2022-09-07T22:09:01.386Z,5.00
2022-09-07T22:11:29.933Z,4.10
2022-09-07T22:14:02.655Z,4.45
2022-09-07T22:16:32.736Z,4.35
2022-09-07T22:19:00.735Z,4.70
2022-09-07T22:21:30.124Z,5.30
2022-09-07T22:24:02.132Z,5.68
2022-09-07T22:26:33.937Z,5.68
2022-09-07T22:29:01.475Z,5.72
2022-09-07T22:31:32.910Z,6.15
2022-09-07T22:36:36.108Z,5.20
2022-09-07T22:39:13.900Z,5.28
2022-09-07T22:41:43.294Z,4.80
2022-09-07T22:44:15.246Z,4.30
2022-09-07T22:46:44.908Z,3.90
2022-09-07T22:49:15.846Z,4.20
2022-09-07T22:51:44.423Z,4.63
2022-09-07T22:54:11.874Z,4.22
2022-09-07T22:56:39.891Z,4.20
2022-09-07T22:59:09.626Z,4.63
2022-09-07T23:01:37.604Z,4.38
2022-09-07T23:06:38.494Z,4.53
2022-09-07T23:09:10.509Z,4.63
2022-09-07T23:11:38.609Z,4.85
2022-09-07T23:14:13.104Z,4.10
2022-09-07T23:16:41.036Z,4.72
2022-09-07T23:19:12.650Z,5.13
2022-09-07T23:21:40.734Z,5.40
2022-09-07T23:24:13.412Z,5.28
2022-09-07T23:26:41.215Z,5.38
2022-09-07T23:29:12.914Z,5.60
2022-09-07T23:31:40.920Z,4.75
2022-09-07T23:34:09.527Z,4.90
2022-09-07T23:36:37.100Z,4.63
2022-09-07T23:39:05.009Z,4.80
2022-09-07T23:41:32.722Z,5.18
2022-09-07T23:44:00.457Z,5.97
2022-09-07T23:46:27.982Z,5.32
2022-09-07T23:48:55.440Z,5.63
2022-09-07T23:51:24.426Z,5.70
2022-09-07T23:53:53.301Z,5.97
2022-09-07T23:56:24.264Z,5.78
2022-09-07T23:58:52.187Z,5.78
